Time;durP1;ratioP1;P1;durP2;ratioP2;P2;SDS_P1;SDS_P2;PMS_P1;PMS_P2;Temp;Humidity;BMP_temperature;BMP_pressure;BME280_temperature;BME280_humidity;BME280_pressure;Samples;Min_cycle;Max_cycle;Signal;HPM_P1;HPM_P2
2022/01/27 00:01:54;;;;;;;12.70;12.00;;;16.20;83.50;;;;;;5032485;28;20849;-51
2022/01/27 00:04:26;;;;;;;14.87;14.07;;;16.20;83.50;;;;;;5043161;28;20483;-49
2022/01/27 00:06:53;;;;;;;15.60;14.70;;;16.20;82.40;;;;;;5052166;28;20557;-51
2022/01/27 00:09:26;;;;;;;12.77;12.20;;;16.20;81.60;;;;;;5052444;28;20448;-51
2022/01/27 00:11:53;;;;;;;14.03;13.43;;;16.10;82.50;;;;;;5052534;28;20471;-49
2022/01/27 00:14:21;;;;;;;17.23;16.03;;;16.10;81.40;;;;;;5051844;28;20542;-46
2022/01/27 00:16:58;;;;;;;15.60;14.70;;;16.20;81.60;;;;;;5051978;28;20913;-48
2022/01/27 00:19:25;;;;;;;13.00;12.50;;;16.10;81.00;;;;;;5052286;28;20513;-47
2022/01/27 00:21:52;;;;;;;16.33;15.33;;;16.10;81.60;;;;;;5052137;28;20456;-48
2022/01/27 00:24:19;;;;;;;15.90;15.00;;;16.00;81.10;;;;;;5052100;28;21008;-47
2022/01/27 00:26:47;;;;;;;16.10;14.90;;;16.10;81.30;;;;;;5051959;28;20460;-48
2022/01/27 00:29:14;;;;;;;16.20;15.20;;;15.90;80.40;;;;;;5052091;28;20452;-48
2022/01/27 00:31:41;;;;;;;15.10;14.37;;;16.00;81.30;;;;;;5052083;28;20451;-51
2022/01/27 00:34:09;;;;;;;14.60;13.90;;;15.90;81.10;;;;;;5052126;28;20449;-50
2022/01/27 00:36:35;;;;;;;15.50;14.63;;;15.90;81.80;;;;;;5051617;28;20822;-48
2022/01/27 00:39:02;;;;;;;15.33;14.47;;;15.80;81.90;;;;;;5052025;28;20448;-48
2022/01/27 00:41:30;;;;;;;15.30;14.30;;;15.80;81.80;;;;;;5051911;28;20478;-49
2022/01/27 00:43:57;;;;;;;14.53;13.83;;;15.80;81.90;;;;;;5051924;28;20448;-51
2022/01/27 00:46:23;;;;;;;14.60;13.90;;;15.80;82.90;;;;;;5051514;28;20480;-49
2022/01/27 00:48:51;;;;;;;14.80;14.10;;;15.80;83.20;;;;;;5051969;28;20459;-51
2022/01/27 00:51:23;;;;;;;14.80;13.90;;;15.70;83.10;;;;;;5051767;28;20440;-46
2022/01/27 00:53:56;;;;;;;15.20;14.40;;;15.70;83.50;;;;;;5051735;28;20965;-50
2022/01/27 00:56:29;;;;;;;15.70;14.80;;;15.70;83.70;;;;;;5051372;28;20487;-48
2022/01/27 00:59:05;;;;;;;12.73;12.23;;;15.80;83.60;;;;;;5051686;28;20483;-45
2022/01/27 01:01:36;;;;;;;13.80;13.20;;;15.80;83.80;;;;;;5051871;28;20479;-47
2022/01/27 01:04:07;;;;;;;14.97;14.07;;;15.70;83.70;;;;;;5043622;28;20532;-46
2022/01/27 01:06:42;;;;;;;13.40;12.80;;;15.70;82.80;;;;;;5031358;28;20561;-48
2022/01/27 01:12:25;;;;;;;12.73;12.33;;;15.70;83.90;;;;;;5031729;28;20451;-46
2022/01/27 01:14:54;;;;;;;14.73;14.03;;;15.70;83.90;;;;;;5031641;28;20472;-48
2022/01/27 01:20:25;;;;;;;14.23;13.63;;;15.50;83.60;;;;;;5026244;28;20425;-46
2022/01/27 01:31:16;;;;;;;15.17;14.37;;;15.50;85.10;;;;;;5035717;28;20555;-46
2022/01/27 01:33:45;;;;;;;15.57;14.53;;;15.50;84.30;;;;;;5035554;28;21012;-45
2022/01/27 01:36:26;;;;;;;13.53;12.97;;;15.60;84.40;;;;;;5034959;28;20538;-45
2022/01/27 01:38:54;;;;;;;14.70;13.80;;;15.60;84.70;;;;;;5035434;28;20448;-45
2022/01/27 01:41:21;;;;;;;14.63;13.83;;;15.60;83.90;;;;;;5035308;28;20445;-46
2022/01/27 01:43:48;;;;;;;14.57;13.90;;;15.60;84.30;;;;;;5035301;28;20467;-46
2022/01/27 01:46:15;;;;;;;13.03;12.40;;;15.50;84.50;;;;;;5035076;28;20441;-47
2022/01/27 01:48:41;;;;;;;14.57;13.80;;;15.50;84.80;;;;;;5035375;28;20445;-45
2022/01/27 01:51:08;;;;;;;15.63;14.70;;;15.50;84.60;;;;;;5035187;28;20818;-46
2022/01/27 01:53:35;;;;;;;13.93;13.27;;;15.50;84.60;;;;;;5035101;28;20814;-45
2022/01/27 01:56:05;;;;;;;14.00;13.30;;;15.50;84.00;;;;;;5034854;28;20476;-46
2022/01/27 01:58:32;;;;;;;15.57;14.73;;;15.40;84.00;;;;;;5034950;28;21001;-46
2022/01/27 02:00:58;;;;;;;13.27;12.73;;;15.40;85.20;;;;;;5035207;28;20441;-46
2022/01/27 02:03:25;;;;;;;13.50;13.00;;;15.50;85.20;;;;;;5038090;28;20519;-45
2022/01/27 02:05:55;;;;;;;15.00;14.23;;;15.50;84.90;;;;;;5054763;28;20451;-46
2022/01/27 02:19:23;;;;;;;14.13;13.53;;;15.40;84.50;;;;;;5054811;28;20936;-46
2022/01/27 02:21:53;;;;;;;14.80;14.00;;;15.40;83.90;;;;;;5054639;28;21056;-48
2022/01/27 02:24:21;;;;;;;15.40;14.50;;;15.40;85.00;;;;;;5054898;28;20470;-47
2022/01/27 02:26:49;;;;;;;15.50;14.60;;;15.40;84.20;;;;;;5054287;28;20991;-46
2022/01/27 02:29:16;;;;;;;16.30;15.30;;;15.40;82.90;;;;;;5054741;28;20448;-46
2022/01/27 02:31:43;;;;;;;13.83;13.13;;;15.40;82.60;;;;;;5054557;28;20467;-46
2022/01/27 02:34:11;;;;;;;16.07;15.17;;;15.40;84.20;;;;;;5054534;28;20464;-46
2022/01/27 02:36:37;;;;;;;14.50;13.80;;;15.40;83.80;;;;;;5053406;28;20996;-46
2022/01/27 02:39:07;;;;;;;14.00;13.40;;;15.40;83.40;;;;;;5054573;28;20455;-45
2022/01/27 02:41:42;;;;;;;14.63;13.77;;;15.40;84.10;;;;;;5054370;28;20454;-46
2022/01/27 02:44:09;;;;;;;15.17;14.27;;;15.40;83.60;;;;;;5054459;28;20830;-48
2022/01/27 02:46:40;;;;;;;16.20;15.00;;;15.40;83.10;;;;;;5053826;28;20482;-45
2022/01/27 02:49:07;;;;;;;15.27;14.47;;;15.40;83.20;;;;;;5054402;28;20440;-53
2022/01/27 02:51:36;;;;;;;13.03;12.57;;;15.40;83.80;;;;;;5054102;28;20447;-52
2022/01/27 02:54:02;;;;;;;13.73;13.03;;;15.40;83.70;;;;;;5053835;28;20455;-51
2022/01/27 02:56:31;;;;;;;14.67;13.87;;;15.40;83.30;;;;;;5053473;28;20480;-48
2022/01/27 02:58:58;;;;;;;13.60;13.03;;;15.40;83.80;;;;;;5053735;28;20444;-50
2022/01/27 03:01:25;;;;;;;13.80;13.20;;;15.40;84.40;;;;;;5053834;28;20445;-49
2022/01/27 03:03:52;;;;;;;14.17;13.57;;;15.40;83.80;;;;;;5047067;28;20433;-48
2022/01/27 03:06:18;;;;;;;14.53;13.90;;;15.40;83.60;;;;;;5033539;28;20934;-51
2022/01/27 03:08:45;;;;;;;13.20;12.70;;;15.40;83.70;;;;;;5033900;28;20437;-48
2022/01/27 03:11:14;;;;;;;14.40;13.30;;;15.40;84.10;;;;;;5033770;28;20456;-53
2022/01/27 03:13:42;;;;;;;14.57;13.77;;;15.40;83.70;;;;;;5033722;28;20813;-48
2022/01/27 03:16:10;;;;;;;14.90;13.90;;;15.40;82.50;;;;;;5033528;28;20477;-48
2022/01/27 03:18:37;;;;;;;13.77;13.17;;;15.40;83.10;;;;;;5033601;28;20457;-50
2022/01/27 03:21:05;;;;;;;14.37;13.67;;;15.40;83.60;;;;;;5033469;28;20445;-46
2022/01/27 03:23:33;;;;;;;13.10;12.40;;;15.30;83.30;;;;;;5033417;28;20445;-50
2022/01/27 03:26:00;;;;;;;13.13;12.50;;;15.30;83.80;;;;;;5033187;28;20871;-51
2022/01/27 03:28:29;;;;;;;14.20;13.50;;;15.40;85.50;;;;;;5033367;28;20472;-48
2022/01/27 03:30:57;;;;;;;13.90;13.30;;;15.30;84.50;;;;;;5033178;28;20556;-49
2022/01/27 03:33:24;;;;;;;14.00;13.33;;;15.40;84.40;;;;;;5033444;28;20790;-46
2022/01/27 03:35:50;;;;;;;13.57;12.93;;;15.40;83.90;;;;;;5033130;28;20457;-46
2022/01/27 03:38:17;;;;;;;13.23;12.73;;;15.40;84.40;;;;;;5033305;28;20469;-51
2022/01/27 03:40:44;;;;;;;13.47;12.83;;;15.40;84.50;;;;;;5033431;28;20445;-46
2022/01/27 03:43:12;;;;;;;15.60;14.80;;;15.40;84.00;;;;;;5033097;28;20461;-50
2022/01/27 03:45:39;;;;;;;13.30;12.73;;;15.30;83.50;;;;;;5033016;28;20815;-46
2022/01/27 03:48:08;;;;;;;14.37;13.67;;;15.40;84.20;;;;;;5032167;28;20466;-52
2022/01/27 03:50:35;;;;;;;14.13;13.53;;;15.40;83.90;;;;;;5033406;28;20460;-48
2022/01/27 03:53:02;;;;;;;13.83;13.30;;;15.40;84.30;;;;;;5033039;28;20958;-48
2022/01/27 03:55:29;;;;;;;13.90;13.30;;;15.40;84.00;;;;;;5032776;28;20453;-46
2022/01/27 03:57:55;;;;;;;13.80;13.13;;;15.40;84.10;;;;;;5032919;28;20488;-50
2022/01/27 04:00:22;;;;;;;13.47;12.90;;;15.40;84.10;;;;;;5032814;28;20448;-51
2022/01/27 04:03:02;;;;;;;14.67;13.90;;;15.40;84.90;;;;;;5032901;28;20441;-49
2022/01/27 04:05:35;;;;;;;14.20;13.60;;;15.50;84.60;;;;;;5052458;28;20531;-47
2022/01/27 04:08:03;;;;;;;13.27;12.70;;;15.60;84.50;;;;;;5052478;28;20464;-49
2022/01/27 04:10:29;;;;;;;13.87;13.37;;;15.60;84.00;;;;;;5052743;28;20813;-46
2022/01/27 04:12:56;;;;;;;13.20;12.70;;;15.60;84.10;;;;;;5052493;28;20819;-48
2022/01/27 04:15:23;;;;;;;12.40;11.90;;;15.60;83.70;;;;;;5052247;28;20440;-49
2022/01/27 04:17:50;;;;;;;13.53;12.93;;;15.60;84.10;;;;;;5051889;28;20484;-46
2022/01/27 04:20:17;;;;;;;14.23;13.63;;;15.60;84.10;;;;;;5052323;28;20444;-46
2022/01/27 04:22:46;;;;;;;13.80;13.20;;;15.70;84.20;;;;;;5052361;28;20436;-46
2022/01/27 04:25:13;;;;;;;12.50;12.00;;;15.60;84.00;;;;;;5052245;28;20502;-48
2022/01/27 04:27:44;;;;;;;13.63;13.13;;;15.60;84.10;;;;;;5052295;28;20526;-51
2022/01/27 04:30:16;;;;;;;13.80;13.20;;;15.70;83.90;;;;;;5052523;28;20448;-48
2022/01/27 04:32:47;;;;;;;12.80;12.30;;;15.70;83.90;;;;;;5052122;28;20444;-49
2022/01/27 04:35:17;;;;;;;12.60;12.10;;;15.70;84.10;;;;;;5052214;28;20933;-48
2022/01/27 04:37:58;;;;;;;13.13;12.63;;;15.70;83.60;;;;;;5051852;28;20510;-46
2022/01/27 04:40:34;;;;;;;12.93;12.40;;;15.70;83.30;;;;;;5052016;28;20480;-48
2022/01/27 04:43:08;;;;;;;13.30;12.67;;;15.70;83.50;;;;;;5051962;28;20447;-46
2022/01/27 04:45:42;;;;;;;12.67;11.97;;;15.70;84.20;;;;;;5051807;28;20806;-45
2022/01/27 04:48:13;;;;;;;13.30;12.60;;;15.80;84.20;;;;;;5051753;28;20480;-47
2022/01/27 04:50:40;;;;;;;12.40;11.93;;;15.80;83.90;;;;;;5051881;28;20455;-46
2022/01/27 04:53:14;;;;;;;12.60;12.10;;;15.80;83.90;;;;;;5051781;28;20499;-47
2022/01/27 04:55:41;;;;;;;12.80;12.30;;;15.80;83.70;;;;;;5051689;28;20448;-47
2022/01/27 04:58:13;;;;;;;12.83;12.33;;;15.80;83.90;;;;;;5051469;28;20487;-48
2022/01/27 05:00:40;;;;;;;13.80;13.00;;;15.80;83.90;;;;;;5051441;28;20479;-46
2022/01/27 05:03:16;;;;;;;13.60;13.00;;;15.80;83.90;;;;;;5051147;28;20505;-48
2022/01/27 05:05:43;;;;;;;13.97;13.47;;;15.80;83.60;;;;;;5031577;28;20453;-48
2022/01/27 05:08:17;;;;;;;13.90;13.30;;;15.80;83.80;;;;;;5031617;28;20465;-48
2022/01/27 05:10:53;;;;;;;13.70;13.20;;;15.80;83.70;;;;;;5031715;28;20445;-48
2022/01/27 05:13:21;;;;;;;14.53;13.93;;;15.80;84.10;;;;;;5031728;28;20949;-48
2022/01/27 05:15:48;;;;;;;14.53;13.73;;;15.80;83.90;;;;;;5031494;28;20899;-46
2022/01/27 05:18:16;;;;;;;14.83;14.10;;;15.80;83.90;;;;;;5031688;28;20484;-46
2022/01/27 05:20:44;;;;;;;14.93;14.33;;;15.90;83.70;;;;;;5031478;28;20495;-45
2022/01/27 05:23:13;;;;;;;14.07;13.37;;;15.90;83.60;;;;;;5031441;28;20441;-45
2022/01/27 05:25:40;;;;;;;14.87;14.13;;;15.90;83.30;;;;;;5031378;28;20441;-44
2022/01/27 05:28:07;;;;;;;15.83;14.50;;;15.80;84.20;;;;;;5031402;28;20468;-46
2022/01/27 05:30:34;;;;;;;14.83;14.13;;;15.90;99.20;;;;;;5031484;28;20446;-43
2022/01/27 05:33:01;;;;;;;14.57;13.87;;;15.90;99.90;;;;;;5031475;28;20445;-42
2022/01/27 05:35:28;;;;;;;15.10;14.20;;;15.90;99.90;;;;;;5031293;28;20452;-43
2022/01/27 05:37:55;;;;;;;15.20;14.40;;;15.90;99.90;;;;;;5031274;28;20481;-44
2022/01/27 05:40:23;;;;;;;15.00;14.10;;;15.90;99.90;;;;;;5031342;28;20453;-44
2022/01/27 05:42:50;;;;;;;13.87;13.30;;;15.90;99.90;;;;;;5031351;28;20457;-44
2022/01/27 05:45:17;;;;;;;14.90;14.20;;;16.00;99.90;;;;;;5031153;28;20437;-48
2022/01/27 05:47:44;;;;;;;13.83;13.20;;;16.10;99.90;;;;;;5031189;28;20460;-45
2022/01/27 05:50:10;;;;;;;16.17;14.77;;;16.00;99.90;;;;;;5031272;28;20440;-44
2022/01/27 05:52:37;;;;;;;15.33;14.50;;;16.90;98.40;;;;;;5031303;28;20452;-47
2022/01/27 05:55:05;;;;;;;15.87;15.07;;;17.60;94.30;;;;;;5031195;28;20449;-43
2022/01/27 05:57:33;;;;;;;15.23;14.53;;;17.90;91.60;;;;;;5030929;28;20488;-46
2022/01/27 06:00:00;;;;;;;14.40;13.80;;;18.30;90.20;;;;;;5031113;28;20445;-44
2022/01/27 06:02:27;;;;;;;14.60;13.90;;;18.80;86.60;;;;;;5031099;28;20441;-45
2022/01/27 06:04:53;;;;;;;15.57;14.50;;;19.30;82.30;;;;;;5046096;28;20443;-45
2022/01/27 06:07:20;;;;;;;15.00;14.23;;;19.70;77.80;;;;;;5050691;28;20464;-47
2022/01/27 06:09:47;;;;;;;15.13;14.43;;;19.90;74.10;;;;;;5051038;28;20447;-47
2022/01/27 06:12:13;;;;;;;15.20;14.60;;;20.10;71.70;;;;;;5052797;28;20451;-44
2022/01/27 06:14:42;;;;;;;14.80;14.20;;;20.20;69.70;;;;;;5054365;28;20804;-46
2022/01/27 06:17:08;;;;;;;14.77;14.17;;;20.20;68.50;;;;;;5054024;28;20549;-48
2022/01/27 06:19:35;;;;;;;15.57;14.87;;;20.20;67.30;;;;;;5054369;28;20459;-43
2022/01/27 06:22:08;;;;;;;15.33;14.63;;;20.10;65.80;;;;;;5054308;28;20541;-46
2022/01/27 06:24:35;;;;;;;15.63;15.03;;;20.30;65.50;;;;;;5054468;28;20476;-45
2022/01/27 06:27:02;;;;;;;15.37;14.77;;;20.10;64.70;;;;;;5054008;28;20463;-45
2022/01/27 06:29:28;;;;;;;17.30;16.10;;;20.10;65.60;;;;;;5054248;28;20448;-48
2022/01/27 06:31:57;;;;;;;16.40;15.50;;;20.30;67.90;;;;;;5054333;28;20444;-44
2022/01/27 06:34:23;;;;;;;18.20;17.17;;;20.30;72.90;;;;;;5054161;28;20930;-44
2022/01/27 06:36:50;;;;;;;21.33;16.83;;;20.30;79.70;;;;;;5053719;28;20468;-45
2022/01/27 06:39:17;;;;;;;17.67;16.33;;;20.30;85.00;;;;;;5054148;28;20455;-50
2022/01/27 06:41:44;;;;;;;19.37;17.50;;;20.40;91.90;;;;;;5054077;28;20455;-45
2022/01/27 06:44:11;;;;;;;20.00;18.30;;;20.30;92.00;;;;;;5053903;28;20502;-47
2022/01/27 06:46:38;;;;;;;22.20;18.50;;;20.20;92.90;;;;;;5046758;28;20463;-44
2022/01/27 06:49:07;;;;;;;18.53;16.80;;;20.20;92.50;;;;;;5016763;28;20457;-44
2022/01/27 06:51:34;;;;;;;19.03;17.43;;;20.20;92.00;;;;;;5014244;28;20450;-44
2022/01/27 06:54:00;;;;;;;18.40;16.77;;;20.10;90.30;;;;;;5014154;28;20935;-44
2022/01/27 06:56:28;;;;;;;18.27;16.90;;;20.10;88.10;;;;;;5013674;28;20453;-45
2022/01/27 06:58:55;;;;;;;19.13;17.70;;;20.00;87.10;;;;;;5013878;28;20482;-44
2022/01/27 07:01:22;;;;;;;16.77;15.67;;;20.00;84.80;;;;;;5013928;28;20818;-43
2022/01/27 07:03:49;;;;;;;16.87;15.97;;;19.90;84.00;;;;;;5013877;28;20450;-44
2022/01/27 07:06:17;;;;;;;17.73;16.27;;;20.00;82.80;;;;;;5013589;28;20442;-49
2022/01/27 07:08:44;;;;;;;17.20;15.83;;;19.90;80.60;;;;;;5013883;28;20450;-44
2022/01/27 07:11:11;;;;;;;16.60;15.33;;;19.80;79.70;;;;;;5013657;28;20442;-44
2022/01/27 07:13:40;;;;;;;18.17;17.07;;;19.80;78.50;;;;;;5013705;28;20461;-44
2022/01/27 07:16:07;;;;;;;17.70;16.37;;;19.60;76.90;;;;;;5013397;28;20931;-44
2022/01/27 07:18:34;;;;;;;15.80;14.47;;;19.60;76.90;;;;;;5013470;28;20486;-46
2022/01/27 07:21:01;;;;;;;17.37;16.20;;;19.60;76.00;;;;;;5013729;28;20454;-44
2022/01/27 07:23:29;;;;;;;15.77;14.67;;;19.50;75.30;;;;;;5013526;28;20450;-46
2022/01/27 07:25:56;;;;;;;15.23;14.40;;;19.50;74.30;;;;;;5013328;28;20454;-47
2022/01/27 07:28:23;;;;;;;15.07;14.27;;;19.40;73.70;;;;;;5013203;28;20469;-43
2022/01/27 07:30:50;;;;;;;17.03;15.97;;;19.30;73.40;;;;;;5013380;28;20446;-46
2022/01/27 07:33:17;;;;;;;16.63;15.53;;;19.30;72.80;;;;;;5013386;28;20860;-45
2022/01/27 07:35:44;;;;;;;17.37;16.07;;;19.30;72.20;;;;;;5013162;28;20954;-43
2022/01/27 07:38:11;;;;;;;17.30;16.07;;;19.20;71.20;;;;;;5013040;28;20489;-44
2022/01/27 07:40:39;;;;;;;16.13;15.00;;;19.20;71.00;;;;;;5013291;28;20446;-43
2022/01/27 07:43:06;;;;;;;16.03;14.83;;;19.20;71.10;;;;;;5013167;28;20454;-44
2022/01/27 07:45:32;;;;;;;16.73;15.80;;;19.10;69.70;;;;;;5013079;28;20446;-48
2022/01/27 07:47:59;;;;;;;17.13;15.67;;;19.10;69.10;;;;;;5012952;28;20471;-44
2022/01/27 07:50:29;;;;;;;15.90;14.80;;;19.10;68.70;;;;;;5013010;28;20447;-44
2022/01/27 07:52:55;;;;;;;15.73;14.70;;;19.00;68.40;;;;;;5012918;28;20948;-44
2022/01/27 07:55:22;;;;;;;15.60;14.50;;;18.90;67.90;;;;;;5012837;28;20445;-44
2022/01/27 07:57:51;;;;;;;17.10;15.73;;;18.90;67.30;;;;;;5012753;28;20513;-48
2022/01/27 08:00:18;;;;;;;14.80;14.00;;;18.80;66.80;;;;;;5012813;28;20456;-48
2022/01/27 08:02:45;;;;;;;15.53;14.63;;;18.80;66.80;;;;;;5012934;28;20766;-53
2022/01/27 08:05:12;;;;;;;15.93;14.77;;;18.80;66.70;;;;;;5012518;28;21009;-46
2022/01/27 08:07:39;;;;;;;17.20;16.20;;;18.70;66.80;;;;;;5012584;28;20457;-48
2022/01/27 08:10:07;;;;;;;13.50;12.80;;;18.70;66.20;;;;;;5012832;28;20461;-50
2022/01/27 08:12:40;;;;;;;15.00;13.77;;;18.60;65.30;;;;;;5012700;28;20804;-44
2022/01/27 08:15:11;;;;;;;15.10;14.27;;;18.50;65.80;;;;;;5012803;28;20504;-46
2022/01/27 08:17:38;;;;;;;16.63;15.53;;;18.50;65.60;;;;;;5012360;28;21025;-46
2022/01/27 08:20:06;;;;;;;16.70;15.80;;;18.40;65.00;;;;;;5012655;28;20461;-44
2022/01/27 08:22:36;;;;;;;15.03;14.33;;;18.40;65.20;;;;;;5012514;28;20826;-46
2022/01/27 08:25:04;;;;;;;16.93;15.73;;;18.40;64.90;;;;;;5012387;28;20447;-44
2022/01/27 08:27:31;;;;;;;17.33;16.10;;;18.30;64.10;;;;;;5012262;28;20466;-47
2022/01/27 08:30:02;;;;;;;15.80;14.80;;;18.20;64.00;;;;;;5012308;28;20508;-44
2022/01/27 08:32:33;;;;;;;14.60;13.90;;;18.10;64.00;;;;;;5012441;28;20490;-47
2022/01/27 08:35:00;;;;;;;15.50;14.60;;;18.20;64.10;;;;;;5011996;28;20478;-47
2022/01/27 08:37:27;;;;;;;16.90;15.70;;;18.20;64.00;;;;;;5012033;28;20461;-46
2022/01/27 08:39:53;;;;;;;17.00;15.97;;;18.30;63.60;;;;;;5012299;28;20450;-44
2022/01/27 08:42:20;;;;;;;15.53;14.83;;;18.50;63.70;;;;;;5012142;28;20452;-47
2022/01/27 08:44:47;;;;;;;16.60;15.60;;;18.50;62.90;;;;;;5012249;28;20452;-50
2022/01/27 08:47:15;;;;;;;14.93;14.13;;;18.60;62.40;;;;;;5011901;28;20484;-49
2022/01/27 08:49:45;;;;;;;13.90;13.30;;;18.60;61.90;;;;;;5012140;28;20445;-43
2022/01/27 08:52:12;;;;;;;15.17;14.47;;;18.70;61.60;;;;;;5012070;28;20453;-46
2022/01/27 08:54:39;;;;;;;15.27;14.53;;;18.70;61.00;;;;;;5012090;28;20445;-47
2022/01/27 08:57:07;;;;;;;16.10;15.20;;;18.80;60.70;;;;;;5011567;28;20833;-44
2022/01/27 08:59:33;;;;;;;17.27;16.17;;;18.70;60.20;;;;;;5011965;28;20489;-44
2022/01/27 09:02:00;;;;;;;15.70;14.90;;;18.70;59.90;;;;;;5011825;28;20947;-43
2022/01/27 09:04:27;;;;;;;15.73;14.87;;;18.60;59.70;;;;;;5011952;28;20815;-49
2022/01/27 09:06:55;;;;;;;14.30;13.70;;;18.60;59.60;;;;;;5011546;28;20493;-54
2022/01/27 09:09:22;;;;;;;14.87;14.07;;;18.70;59.50;;;;;;5012017;28;20453;-44
2022/01/27 09:11:49;;;;;;;16.50;15.47;;;18.60;59.30;;;;;;5011984;28;20446;-50
2022/01/27 09:14:16;;;;;;;15.10;14.50;;;18.60;59.20;;;;;;5011766;28;20469;-48
2022/01/27 09:16:43;;;;;;;16.17;15.10;;;18.50;59.00;;;;;;5011577;28;20474;-50
2022/01/27 09:19:09;;;;;;;16.53;15.73;;;18.50;59.10;;;;;;5011875;28;20572;-50
2022/01/27 09:21:40;;;;;;;14.63;13.93;;;18.50;59.00;;;;;;5011627;28;20442;-44
2022/01/27 09:24:13;;;;;;;14.83;14.07;;;18.50;59.00;;;;;;5011829;28;20981;-49
2022/01/27 09:26:49;;;;;;;14.63;13.93;;;18.40;58.80;;;;;;5011366;28;20466;-49
2022/01/27 09:29:17;;;;;;;13.80;13.13;;;18.40;58.80;;;;;;5011722;28;20548;-44
2022/01/27 09:31:44;;;;;;;15.40;14.70;;;18.40;58.90;;;;;;5011710;28;20867;-48
2022/01/27 09:34:11;;;;;;;15.70;14.97;;;18.30;58.70;;;;;;5011651;28;20442;-51
2022/01/27 09:36:38;;;;;;;14.17;13.57;;;18.30;58.80;;;;;;5011362;28;20520;-48
2022/01/27 09:39:05;;;;;;;13.70;13.10;;;18.30;58.90;;;;;;5011643;28;20490;-54
2022/01/27 09:41:38;;;;;;;14.77;14.07;;;18.20;58.70;;;;;;5011654;28;20453;-43
2022/01/27 09:44:08;;;;;;;13.90;13.30;;;18.10;58.70;;;;;;5011821;28;20446;-44
2022/01/27 09:46:35;;;;;;;15.67;14.87;;;18.10;58.60;;;;;;5012483;28;20528;-48
2022/01/27 09:49:07;;;;;;;15.27;14.20;;;18.10;58.70;;;;;;5015301;28;20496;-46
2022/01/27 09:51:40;;;;;;;14.80;13.90;;;18.20;58.70;;;;;;5015149;28;20963;-48
2022/01/27 09:54:08;;;;;;;15.37;14.67;;;18.20;58.50;;;;;;5015304;28;20481;-43
2022/01/27 09:56:36;;;;;;;16.00;15.10;;;18.10;58.30;;;;;;5014829;28;20468;-46
2022/01/27 09:59:04;;;;;;;13.93;13.33;;;18.10;58.30;;;;;;5015128;28;20488;-45
2022/01/27 10:01:31;;;;;;;15.63;14.87;;;18.10;58.30;;;;;;5015062;28;20454;-48
2022/01/27 10:03:59;;;;;;;15.27;14.60;;;18.00;58.30;;;;;;5015007;28;20442;-45
2022/01/27 10:06:30;;;;;;;14.30;13.70;;;18.00;58.30;;;;;;5014737;28;20850;-52
2022/01/27 10:09:14;;;;;;;14.13;13.30;;;18.10;58.30;;;;;;5015001;28;20549;-44
2022/01/27 10:11:44;;;;;;;14.03;13.43;;;18.10;58.20;;;;;;5014752;28;20460;-44
2022/01/27 10:14:23;;;;;;;15.10;14.40;;;18.10;58.10;;;;;;5014900;28;20453;-49
2022/01/27 10:16:52;;;;;;;15.30;14.50;;;18.20;58.00;;;;;;5014646;28;20509;-46
2022/01/27 10:19:19;;;;;;;13.87;13.27;;;18.30;57.80;;;;;;5014798;28;20576;-43
2022/01/27 10:21:46;;;;;;;14.80;14.10;;;18.30;57.60;;;;;;5014878;28;20445;-47
2022/01/27 10:24:24;;;;;;;15.43;14.83;;;18.30;57.40;;;;;;5014671;28;20812;-46
2022/01/27 10:27:20;;;;;;;13.97;13.27;;;18.30;57.10;;;;;;5014368;28;20557;-43
2022/01/27 10:30:05;;;;;;;15.40;14.70;;;18.40;57.00;;;;;;5014650;28;20500;-46
2022/01/27 10:32:39;;;;;;;15.10;14.50;;;18.40;57.00;;;;;;5014571;28;20469;-49
2022/01/27 10:35:08;;;;;;;15.60;15.00;;;18.30;56.80;;;;;;5014563;28;20839;-49
2022/01/27 10:37:54;;;;;;;15.17;14.47;;;18.30;56.80;;;;;;5014057;28;20470;-44
2022/01/27 10:40:22;;;;;;;14.53;14.00;;;18.30;56.80;;;;;;5014244;28;20486;-43
2022/01/27 10:43:08;;;;;;;14.70;14.00;;;18.30;56.70;;;;;;5014498;28;20962;-48
2022/01/27 10:45:36;;;;;;;14.90;14.30;;;18.30;56.70;;;;;;5014260;28;20450;-48
2022/01/27 10:48:18;;;;;;;15.63;15.00;;;18.20;56.60;;;;;;5014368;28;20469;-44
2022/01/27 10:51:01;;;;;;;15.03;14.33;;;18.20;56.70;;;;;;5014239;28;20449;-49
2022/01/27 10:53:45;;;;;;;13.80;13.20;;;18.20;56.70;;;;;;5014130;28;20446;-49
2022/01/27 10:56:16;;;;;;;15.90;15.10;;;18.10;56.60;;;;;;5014044;28;20748;-44
2022/01/27 10:58:45;;;;;;;14.13;13.63;;;18.10;56.60;;;;;;5013708;28;20478;-48
2022/01/27 11:01:21;;;;;;;14.37;13.87;;;18.10;56.60;;;;;;5014090;28;20798;-46
2022/01/27 11:03:51;;;;;;;15.07;14.53;;;18.10;56.60;;;;;;5014018;28;20457;-48
2022/01/27 11:06:19;;;;;;;14.07;13.50;;;18.00;56.50;;;;;;5013646;28;20884;-49
2022/01/27 11:08:45;;;;;;;14.43;13.93;;;18.10;56.60;;;;;;5013901;28;20450;-48
2022/01/27 11:11:13;;;;;;;14.13;13.50;;;18.10;56.50;;;;;;5013811;28;20454;-46
2022/01/27 11:13:43;;;;;;;14.70;14.10;;;18.10;56.50;;;;;;5013800;28;20524;-50
2022/01/27 11:16:15;;;;;;;14.20;13.70;;;18.10;56.40;;;;;;5013581;28;20858;-45
2022/01/27 11:18:44;;;;;;;14.90;14.20;;;18.30;56.50;;;;;;5095413;23;20845;-55
2022/01/27 11:21:23;;;;;;;14.20;13.70;;;18.50;56.20;;;;;;5072470;28;20518;-49
2022/01/27 11:24:13;;;;;;;13.70;13.20;;;18.70;55.70;;;;;;5073267;28;20439;-48
2022/01/27 11:26:43;;;;;;;13.50;12.90;;;18.70;55.30;;;;;;5073104;28;20444;-49
2022/01/27 11:29:11;;;;;;;14.27;13.77;;;18.80;55.10;;;;;;5073377;28;20804;-48
2022/01/27 11:31:55;;;;;;;13.60;13.10;;;18.80;54.80;;;;;;5072945;28;20470;-51
2022/01/27 11:34:22;;;;;;;14.10;13.50;;;18.80;54.70;;;;;;5072924;28;20442;-48
2022/01/27 11:37:04;;;;;;;13.67;13.17;;;18.80;54.70;;;;;;5072710;28;20435;-49
2022/01/27 11:39:51;;;;;;;14.57;14.03;;;18.80;54.60;;;;;;5072862;28;20487;-52
2022/01/27 11:42:43;;;;;;;15.27;14.63;;;18.80;54.50;;;;;;5072724;28;20483;-50
2022/01/27 11:45:34;;;;;;;14.50;13.90;;;18.80;54.30;;;;;;5072854;28;20447;-52
2022/01/27 11:48:08;;;;;;;14.67;14.07;;;18.80;54.30;;;;;;5053214;28;20846;-52
2022/01/27 11:50:47;;;;;;;14.90;14.30;;;18.70;54.30;;;;;;5072618;28;20443;-51
2022/01/27 11:53:29;;;;;;;14.60;14.10;;;18.70;54.30;;;;;;5072650;28;20439;-49
2022/01/27 11:55:56;;;;;;;14.70;14.00;;;18.70;54.40;;;;;;5072439;28;20951;-51
2022/01/27 11:58:25;;;;;;;14.40;13.80;;;18.70;54.30;;;;;;5072434;28;20464;-48
2022/01/27 12:01:03;;;;;;;13.97;13.47;;;18.60;54.20;;;;;;5072379;28;20444;-52
2022/01/27 12:03:31;;;;;;;14.50;13.90;;;18.60;54.30;;;;;;5072377;28;20797;-51
2022/01/27 12:06:25;;;;;;;15.40;14.77;;;18.50;54.30;;;;;;5072223;28;20474;-52
2022/01/27 12:09:11;;;;;;;14.40;13.90;;;18.50;54.40;;;;;;5024580;28;20852;-48
2022/01/27 12:11:45;;;;;;;13.60;13.10;;;18.50;54.40;;;;;;5072347;28;20447;-49
2022/01/27 12:14:14;;;;;;;15.03;14.33;;;18.40;54.40;;;;;;5072348;28;20454;-50
2022/01/27 12:16:53;;;;;;;14.50;14.00;;;18.40;54.40;;;;;;5071757;28;20487;-49
2022/01/27 12:19:21;;;;;;;13.70;13.30;;;18.40;54.40;;;;;;5072197;28;20478;-52
2022/01/27 12:22:01;;;;;;;13.83;13.23;;;18.30;54.40;;;;;;5071985;28;20442;-50
2022/01/27 12:24:29;;;;;;;14.80;14.20;;;18.40;54.50;;;;;;5072152;28;20497;-48
2022/01/27 12:26:58;;;;;;;14.23;13.73;;;18.20;54.40;;;;;;5071700;28;20588;-48
2022/01/27 12:29:28;;;;;;;14.00;13.50;;;18.30;54.60;;;;;;5072016;28;20834;-49
2022/01/27 12:31:56;;;;;;;14.83;14.33;;;18.20;54.60;;;;;;5072143;28;20455;-53
2022/01/27 12:34:25;;;;;;;14.53;14.13;;;18.20;54.70;;;;;;5071873;28;20446;-51
2022/01/27 12:36:57;;;;;;;14.17;13.63;;;18.20;54.70;;;;;;5071705;28;20467;-48
2022/01/27 12:39:26;;;;;;;14.20;13.70;;;18.10;54.70;;;;;;5071924;28;20482;-47
2022/01/27 12:41:54;;;;;;;13.87;13.37;;;18.10;54.80;;;;;;5071838;28;20454;-51
2022/01/27 12:44:21;;;;;;;14.70;14.10;;;18.10;54.90;;;;;;5072072;28;20454;-51
2022/01/27 12:47:08;;;;;;;15.07;14.47;;;18.20;55.00;;;;;;5071601;28;20439;-50
2022/01/27 12:49:45;;;;;;;14.57;14.00;;;18.30;54.90;;;;;;5071695;28;20500;-50
2022/01/27 12:52:15;;;;;;;15.40;14.80;;;18.40;54.80;;;;;;5071912;28;20807;-49
2022/01/27 12:54:43;;;;;;;14.27;13.73;;;18.50;54.40;;;;;;5071843;28;20454;-47
2022/01/27 12:57:12;;;;;;;14.70;14.20;;;18.70;54.30;;;;;;5071455;28;20475;-48
2022/01/27 12:59:41;;;;;;;14.77;14.17;;;18.70;53.90;;;;;;5071688;28;20892;-52
2022/01/27 13:02:09;;;;;;;14.57;14.07;;;18.80;53.80;;;;;;5071660;28;20459;-49
2022/01/27 13:04:38;;;;;;;15.97;15.47;;;18.80;54.20;;;;;;5071542;28;20450;-48
2022/01/27 13:07:07;;;;;;;15.13;14.63;;;18.70;53.50;;;;;;5071326;28;21000;-48